createdAt,value
2022-11-02T00:01:43.011Z,6.45
2022-11-02T00:04:28.664Z,5.30
2022-11-02T00:07:14.071Z,4.82
2022-11-02T00:09:59.746Z,4.03
2022-11-02T00:12:45.810Z,3.70
2022-11-02T00:15:34.599Z,3.00
2022-11-02T00:18:20.139Z,2.92
2022-11-02T00:21:05.836Z,3.03
2022-11-02T00:23:57.369Z,2.67
2022-11-02T00:26:42.757Z,3.78
2022-11-02T00:29:33.452Z,4.35
2022-11-02T00:32:20.220Z,1.92
2022-11-02T00:35:06.359Z,2.38
2022-11-02T00:37:51.772Z,1.60
2022-11-02T00:40:37.316Z,1.70
2022-11-02T00:43:22.676Z,1.20
2022-11-02T00:46:08.344Z,1.65
2022-11-02T00:48:53.931Z,1.55
2022-11-02T00:51:39.863Z,1.48
2022-11-02T00:54:28.659Z,1.63
2022-11-02T00:57:14.698Z,1.55
2022-11-02T01:00:00.980Z,1.70
2022-11-02T01:02:46.463Z,1.50
2022-11-02T01:05:32.170Z,2.10
2022-11-02T01:08:17.734Z,1.75
2022-11-02T01:11:17.928Z,1.92
2022-11-02T01:14:03.324Z,1.38
2022-11-02T01:16:49.159Z,1.90
2022-11-02T01:19:35.358Z,1.75
2022-11-02T01:22:23.542Z,1.50
2022-11-02T01:25:09.328Z,1.70
2022-11-02T01:27:54.832Z,1.55
2022-11-02T01:30:40.514Z,1.88
2022-11-02T01:33:29.155Z,1.88
2022-11-02T01:36:16.649Z,1.33
2022-11-02T01:39:02.254Z,2.25
2022-11-02T01:41:52.714Z,1.95
2022-11-02T01:44:40.090Z,1.88
2022-11-02T01:47:39.225Z,2.72
2022-11-02T01:50:27.777Z,2.30
2022-11-02T01:53:16.275Z,2.38
2022-11-02T01:56:05.718Z,1.90
2022-11-02T01:59:04.115Z,1.90
2022-11-02T02:01:49.892Z,2.50
2022-11-02T02:04:39.054Z,2.80
2022-11-02T02:07:26.247Z,1.95
2022-11-02T02:10:12.007Z,2.72
2022-11-02T02:12:57.737Z,2.45
2022-11-02T02:15:55.448Z,2.00
2022-11-02T02:19:30.771Z,2.83
2022-11-02T02:22:48.331Z,2.58
2022-11-02T02:26:03.183Z,2.90
2022-11-02T02:28:59.842Z,2.47
2022-11-02T02:31:56.386Z,2.80
2022-11-02T02:35:06.139Z,1.95
2022-11-02T02:38:03.439Z,2.28
2022-11-02T02:41:03.882Z,2.47
2022-11-02T02:43:51.823Z,2.35
2022-11-02T02:46:44.079Z,2.17
2022-11-02T02:49:40.667Z,2.38
2022-11-02T02:52:32.854Z,2.92
2022-11-02T02:55:24.352Z,2.35
2022-11-02T02:58:16.534Z,2.60
2022-11-02T03:01:05.981Z,2.45
2022-11-02T03:03:55.641Z,2.00
2022-11-02T03:06:50.055Z,2.30
2022-11-02T03:09:47.357Z,3.80
2022-11-02T03:12:47.815Z,3.53
2022-11-02T03:15:45.006Z,3.42
2022-11-02T03:18:42.594Z,2.83
2022-11-02T03:21:41.866Z,4.65
2022-11-02T03:24:37.657Z,3.00
2022-11-02T03:27:54.659Z,3.22
2022-11-02T03:30:45.873Z,3.95
2022-11-02T03:33:38.368Z,3.45
2022-11-02T03:36:35.829Z,3.67
2022-11-02T03:39:30.117Z,3.42
2022-11-02T03:42:23.642Z,3.42
2022-11-02T03:45:15.978Z,3.90
2022-11-02T03:48:16.924Z,4.32
2022-11-02T03:51:06.964Z,3.83
2022-11-02T03:54:10.923Z,4.03
2022-11-02T03:59:49.626Z,3.13
2022-11-02T04:02:37.840Z,4.80
2022-11-02T04:05:30.958Z,3.83
2022-11-02T04:11:46.865Z,3.50
2022-11-02T04:14:39.598Z,3.08
2022-11-02T04:17:47.810Z,3.05
2022-11-02T04:20:36.271Z,3.08
2022-11-02T04:23:40.659Z,3.78
2022-11-02T04:26:26.094Z,3.60
2022-11-02T04:29:11.634Z,5.03
2022-11-02T04:31:58.425Z,3.67
2022-11-02T04:34:43.859Z,3.88
2022-11-02T04:37:47.960Z,5.05
2022-11-02T04:40:33.896Z,4.63
2022-11-02T04:43:21.386Z,3.85
2022-11-02T04:46:06.960Z,4.65
2022-11-02T04:48:53.236Z,4.65
2022-11-02T04:51:45.733Z,3.95
2022-11-02T04:54:33.460Z,4.75
2022-11-02T04:57:21.079Z,2.92
2022-11-02T05:00:08.886Z,3.67
2022-11-02T05:02:54.648Z,3.80
2022-11-02T05:05:43.689Z,3.28
2022-11-02T05:08:31.867Z,3.88
2022-11-02T05:11:17.790Z,4.10
2022-11-02T05:14:03.633Z,3.13
2022-11-02T05:16:48.977Z,4.15
2022-11-02T05:19:37.360Z,3.50
2022-11-02T05:22:24.011Z,3.80
2022-11-02T05:25:10.215Z,3.53
2022-11-02T05:27:57.519Z,3.58
2022-11-02T05:30:43.094Z,3.15
2022-11-02T05:33:31.119Z,2.78
2022-11-02T05:36:21.138Z,3.33
2022-11-02T05:39:11.741Z,2.63
2022-11-02T05:41:57.460Z,2.72
2022-11-02T05:44:42.924Z,2.47
2022-11-02T05:47:28.582Z,2.83
2022-11-02T05:50:13.798Z,2.38
2022-11-02T05:52:59.671Z,2.40
2022-11-02T05:55:45.079Z,3.03
2022-11-02T05:58:30.947Z,1.98
2022-11-02T06:01:17.255Z,2.15
2022-11-02T06:04:02.327Z,2.10
2022-11-02T06:06:47.797Z,2.35
2022-11-02T06:09:33.338Z,2.33
2022-11-02T06:12:18.758Z,2.28
2022-11-02T06:15:05.144Z,2.63
2022-11-02T06:17:51.792Z,2.55
2022-11-02T06:20:37.208Z,2.17
2022-11-02T06:23:22.879Z,2.60
2022-11-02T06:26:09.419Z,2.50
2022-11-02T06:28:57.767Z,1.83
2022-11-02T06:31:45.958Z,2.35
2022-11-02T06:34:31.287Z,2.45
2022-11-02T06:37:19.235Z,3.03
2022-11-02T06:40:05.048Z,2.42
2022-11-02T06:43:15.301Z,2.72
2022-11-02T06:46:02.780Z,2.47
2022-11-02T06:48:48.443Z,3.35
2022-11-02T06:51:35.241Z,2.47
2022-11-02T06:54:20.729Z,3.03
2022-11-02T06:57:06.089Z,2.70
2022-11-02T06:59:54.112Z,2.10
2022-11-02T07:02:40.367Z,2.38
2022-11-02T07:05:26.190Z,2.95
2022-11-02T07:08:11.537Z,3.40
2022-11-02T07:10:57.018Z,2.72
2022-11-02T07:13:42.804Z,3.10
2022-11-02T07:16:37.463Z,2.85
2022-11-02T07:19:22.909Z,3.20
2022-11-02T07:22:08.407Z,2.72
2022-11-02T07:24:53.981Z,3.10
2022-11-02T07:27:42.213Z,2.58
2022-11-02T07:30:29.226Z,3.20
2022-11-02T07:33:14.485Z,2.88
2022-11-02T07:36:03.787Z,3.58
2022-11-02T07:38:49.786Z,3.78
2022-11-02T07:41:35.988Z,3.65
2022-11-02T07:44:21.276Z,2.92
2022-11-02T07:47:12.838Z,3.00
2022-11-02T07:49:59.765Z,3.35
2022-11-02T07:52:56.787Z,2.17
2022-11-02T07:55:47.926Z,2.88
2022-11-02T07:58:33.803Z,3.33
2022-11-02T08:01:19.585Z,2.53
2022-11-02T08:04:06.179Z,3.55
2022-11-02T08:06:53.240Z,3.22
2022-11-02T08:09:38.933Z,3.20
2022-11-02T08:12:24.889Z,4.00
2022-11-02T08:15:10.446Z,2.80
2022-11-02T08:18:17.555Z,3.20
2022-11-02T08:21:04.244Z,3.55
2022-11-02T08:23:51.769Z,2.70
2022-11-02T08:26:42.399Z,3.38
2022-11-02T08:29:30.515Z,3.20
2022-11-02T08:32:16.014Z,2.33
2022-11-02T08:35:01.146Z,2.65
2022-11-02T08:37:53.806Z,2.75
2022-11-02T08:40:41.087Z,2.85
2022-11-02T08:43:26.595Z,2.80
2022-11-02T08:46:16.509Z,2.70
2022-11-02T08:49:02.532Z,2.70
2022-11-02T08:51:48.189Z,2.40
2022-11-02T08:54:34.296Z,2.33
2022-11-02T08:57:19.958Z,2.35
2022-11-02T09:00:06.373Z,2.53
2022-11-02T09:02:59.570Z,2.28
2022-11-02T09:05:46.579Z,2.42
2022-11-02T09:08:33.345Z,2.22
2022-11-02T09:11:18.836Z,2.60
2022-11-02T09:14:04.157Z,2.13
2022-11-02T09:16:49.586Z,2.30
2022-11-02T09:19:35.021Z,3.22
2022-11-02T09:22:20.458Z,2.63
2022-11-02T09:25:06.674Z,2.38
2022-11-02T09:27:56.417Z,2.75
2022-11-02T09:30:41.856Z,2.50
2022-11-02T09:33:36.422Z,3.10
2022-11-02T09:36:22.311Z,2.90
2022-11-02T09:39:08.274Z,3.08
2022-11-02T09:42:11.555Z,2.90
2022-11-02T09:45:04.590Z,2.70
2022-11-02T09:48:27.868Z,3.40
2022-11-02T09:51:36.875Z,2.50
2022-11-02T09:54:34.157Z,2.85
2022-11-02T09:57:30.691Z,2.70
2022-11-02T10:00:21.109Z,3.65
2022-11-02T10:03:25.095Z,3.42
2022-11-02T10:06:18.616Z,3.47
2022-11-02T10:09:35.748Z,2.65
2022-11-02T10:12:48.598Z,3.40
2022-11-02T10:15:39.331Z,3.85
2022-11-02T10:18:29.959Z,2.90
2022-11-02T10:21:26.067Z,3.45
2022-11-02T10:24:18.509Z,3.35
2022-11-02T10:27:45.230Z,2.83
2022-11-02T10:30:32.079Z,2.97
2022-11-02T10:33:26.248Z,3.40
2022-11-02T10:36:37.302Z,3.22
2022-11-02T10:39:29.747Z,3.35
2022-11-02T10:42:46.725Z,3.60
2022-11-02T10:46:07.399Z,2.95
2022-11-02T10:49:02.188Z,3.15
2022-11-02T10:51:47.791Z,3.73
2022-11-02T10:54:34.701Z,3.28
2022-11-02T10:57:24.039Z,3.08
2022-11-02T11:00:23.160Z,3.65
2022-11-02T11:03:12.095Z,3.40
2022-11-02T11:06:03.616Z,4.10
2022-11-02T11:08:51.949Z,3.00
2022-11-02T11:11:38.902Z,6.40
2022-11-02T11:20:43.068Z,3.50
2022-11-02T11:23:32.027Z,3.33
2022-11-02T11:26:30.999Z,3.53
2022-11-02T11:29:23.182Z,5.28
2022-11-02T11:32:29.857Z,2.72
2022-11-02T11:35:19.024Z,3.47
2022-11-02T11:38:06.938Z,2.75
2022-11-02T11:40:59.649Z,3.30
2022-11-02T11:43:46.585Z,3.08
2022-11-02T11:46:51.364Z,2.25
2022-11-02T11:53:22.411Z,3.38
2022-11-02T11:56:28.745Z,2.42
2022-11-02T11:59:43.993Z,2.85
2022-11-02T12:02:32.150Z,3.17
2022-11-02T12:05:20.757Z,3.17
2022-11-02T12:08:31.259Z,3.92
2022-11-02T12:11:38.748Z,3.03
2022-11-02T12:14:52.680Z,3.10
2022-11-02T12:17:50.424Z,3.75
2022-11-02T12:21:05.151Z,3.53
2022-11-02T12:24:16.002Z,3.05
2022-11-02T12:27:23.068Z,3.30
2022-11-02T12:30:19.835Z,3.17
2022-11-02T12:33:34.687Z,3.55
2022-11-02T12:36:56.783Z,3.65
2022-11-02T12:40:04.787Z,3.70
2022-11-02T12:43:04.924Z,4.03
2022-11-02T12:46:13.583Z,3.63
2022-11-02T12:49:36.758Z,3.75
2022-11-02T12:52:44.209Z,3.63
2022-11-02T12:55:38.751Z,4.05
2022-11-02T12:58:28.832Z,3.60
2022-11-02T13:01:34.166Z,3.55
2022-11-02T13:04:30.305Z,3.35
2022-11-02T13:07:27.019Z,3.40
2022-11-02T13:13:05.168Z,3.28
2022-11-02T13:15:54.743Z,3.28
2022-11-02T13:18:53.278Z,2.95
2022-11-02T13:21:44.451Z,3.60
2022-11-02T13:24:45.683Z,3.20
2022-11-02T13:27:39.210Z,2.88
2022-11-02T13:30:25.959Z,3.58
2022-11-02T13:33:44.783Z,3.72
2022-11-02T13:36:30.858Z,3.05
2022-11-02T13:39:21.806Z,3.97
2022-11-02T13:42:38.203Z,3.95
2022-11-02T13:45:42.728Z,3.55
2022-11-02T13:48:55.870Z,3.65
2022-11-02T13:51:48.922Z,3.50
2022-11-02T13:54:43.960Z,4.10
2022-11-02T14:00:23.520Z,3.92
2022-11-02T14:03:16.847Z,4.82
2022-11-02T14:06:11.626Z,3.63
2022-11-02T14:09:00.491Z,3.75
2022-11-02T14:12:09.847Z,4.10
2022-11-02T14:15:13.779Z,5.20
2022-11-02T14:18:11.950Z,4.80
2022-11-02T14:20:57.559Z,4.57
2022-11-02T14:23:43.099Z,4.03
2022-11-02T14:26:53.534Z,4.30
2022-11-02T14:29:45.098Z,3.55
2022-11-02T14:32:40.906Z,3.83
2022-11-02T14:35:44.073Z,3.88
2022-11-02T14:38:38.753Z,3.58
2022-11-02T14:41:48.521Z,4.63
2022-11-02T14:44:33.715Z,3.67
2022-11-02T14:47:19.887Z,3.58
2022-11-02T14:50:08.232Z,4.00
2022-11-02T14:53:05.976Z,3.88
2022-11-02T14:56:00.982Z,2.97
2022-11-02T14:58:56.523Z,3.40
2022-11-02T15:02:06.556Z,4.03
2022-11-02T15:04:56.474Z,3.17
2022-11-02T15:08:14.292Z,4.20
2022-11-02T15:10:59.889Z,4.07
2022-11-02T15:13:48.704Z,3.75
2022-11-02T15:16:41.434Z,3.65
2022-11-02T15:19:51.881Z,4.47
2022-11-02T15:23:28.503Z,3.40
2022-11-02T15:26:43.253Z,3.58
2022-11-02T15:29:36.565Z,4.57
2022-11-02T15:32:26.322Z,3.78
2022-11-02T15:35:24.170Z,3.95
2022-11-02T15:38:18.576Z,4.03
2022-11-02T15:44:22.672Z,3.38
2022-11-02T15:47:26.429Z,3.70
2022-11-02T15:50:20.836Z,4.03
2022-11-02T15:53:35.407Z,3.47
2022-11-02T15:57:04.212Z,3.80
2022-11-02T16:00:06.876Z,3.92
2022-11-02T16:02:54.131Z,3.67
2022-11-02T16:05:47.739Z,3.30
2022-11-02T16:08:36.115Z,3.70
2022-11-02T16:11:21.649Z,3.33
2022-11-02T16:14:18.146Z,3.05
2022-11-02T16:17:03.909Z,4.05
2022-11-02T16:19:50.018Z,3.95
2022-11-02T16:22:36.769Z,6.05
2022-11-02T16:25:35.129Z,3.92
2022-11-02T16:28:25.711Z,4.65
2022-11-02T16:31:18.967Z,4.80
2022-11-02T16:34:21.712Z,3.30
2022-11-02T16:37:10.687Z,3.70
2022-11-02T16:39:56.094Z,3.90
2022-11-02T16:42:48.306Z,3.60
2022-11-02T16:45:40.265Z,3.60
2022-11-02T16:48:32.972Z,3.25
2022-11-02T16:51:19.277Z,2.67
2022-11-02T16:54:18.117Z,3.80
2022-11-02T16:57:15.852Z,3.50
2022-11-02T17:00:18.306Z,3.17
2022-11-02T17:03:15.242Z,3.70
2022-11-02T17:06:05.488Z,3.55
2022-11-02T17:08:54.032Z,3.53
2022-11-02T17:11:43.373Z,3.03
2022-11-02T17:14:31.814Z,4.15
2022-11-02T17:17:23.920Z,3.13
2022-11-02T17:20:14.858Z,3.92
2022-11-02T17:23:30.886Z,3.67
2022-11-02T17:26:24.867Z,3.58
2022-11-02T17:29:19.512Z,3.72
2022-11-02T17:32:07.382Z,2.70
2022-11-02T17:34:54.500Z,3.67
2022-11-02T17:37:39.745Z,3.40
2022-11-02T17:40:25.390Z,3.95
2022-11-02T17:43:11.313Z,3.80
2022-11-02T17:45:58.395Z,3.72
2022-11-02T17:48:43.968Z,3.42
2022-11-02T17:51:29.428Z,3.97
2022-11-02T17:54:15.052Z,3.78
2022-11-02T17:57:02.164Z,3.92
2022-11-02T17:59:47.700Z,3.85
2022-11-02T18:02:33.473Z,3.75
2022-11-02T18:05:28.512Z,3.50
2022-11-02T18:08:20.938Z,3.55
2022-11-02T18:11:08.719Z,3.53
2022-11-02T18:13:54.009Z,4.20
2022-11-02T18:16:40.196Z,3.50
2022-11-02T18:19:26.140Z,3.92
2022-11-02T18:22:13.112Z,4.32
2022-11-02T18:24:58.607Z,3.42
2022-11-02T18:27:44.941Z,3.38
2022-11-02T18:30:32.267Z,3.10
2022-11-02T18:33:17.630Z,3.00
2022-11-02T18:36:08.537Z,4.15
2022-11-02T18:38:56.478Z,3.53
2022-11-02T18:41:42.503Z,4.05
2022-11-02T18:44:27.650Z,4.13
2022-11-02T18:47:13.387Z,3.70
2022-11-02T18:50:00.239Z,3.97
2022-11-02T18:52:49.107Z,3.40
2022-11-02T18:55:39.559Z,4.07
2022-11-02T18:58:27.854Z,4.15
2022-11-02T19:01:13.876Z,3.55
2022-11-02T19:04:00.466Z,3.55
2022-11-02T19:07:04.868Z,3.60
2022-11-02T19:09:50.351Z,4.05
2022-11-02T19:12:36.284Z,3.33
2022-11-02T19:15:21.577Z,4.15
2022-11-02T19:18:07.955Z,3.75
2022-11-02T19:20:56.653Z,3.45
2022-11-02T19:23:47.187Z,3.20
2022-11-02T19:26:33.880Z,3.22
2022-11-02T19:29:20.006Z,3.75
2022-11-02T19:32:06.164Z,4.00
2022-11-02T19:34:54.248Z,3.53
2022-11-02T19:37:39.675Z,3.88
2022-11-02T19:40:29.314Z,3.53
2022-11-02T19:43:14.767Z,4.22
2022-11-02T19:46:06.349Z,5.15
2022-11-02T19:48:53.028Z,4.18
2022-11-02T19:51:39.129Z,3.75
2022-11-02T19:54:24.665Z,4.43
2022-11-02T19:57:09.987Z,4.13
2022-11-02T19:59:55.619Z,4.05
2022-11-02T20:02:43.634Z,3.55
2022-11-02T20:05:32.891Z,3.90
2022-11-02T20:08:18.687Z,3.45
2022-11-02T20:11:08.873Z,4.20
2022-11-02T20:13:55.885Z,4.38
2022-11-02T20:16:41.616Z,4.20
2022-11-02T20:19:27.350Z,4.28
2022-11-02T20:22:15.886Z,4.13
2022-11-02T20:25:01.498Z,4.78
2022-11-02T20:27:47.014Z,3.83
2022-11-02T20:30:32.723Z,3.65
2022-11-02T20:33:18.121Z,3.67
2022-11-02T20:36:04.507Z,3.97
2022-11-02T20:38:52.695Z,3.92
2022-11-02T20:41:38.278Z,4.68
2022-11-02T20:44:26.504Z,4.25
2022-11-02T20:47:12.318Z,4.25
2022-11-02T20:49:57.548Z,3.95
2022-11-02T20:52:44.986Z,4.15
2022-11-02T20:55:30.763Z,4.75
2022-11-02T20:58:16.255Z,3.80
2022-11-02T21:01:01.568Z,3.90
2022-11-02T21:03:46.886Z,3.70
2022-11-02T21:06:32.418Z,3.30
2022-11-02T21:09:18.761Z,3.75
2022-11-02T21:12:26.182Z,4.60
2022-11-02T21:15:11.430Z,3.58
2022-11-02T21:17:56.949Z,4.30
2022-11-02T21:20:43.137Z,4.15
2022-11-02T21:23:28.519Z,4.07
2022-11-02T21:26:17.180Z,4.97
2022-11-02T21:29:02.778Z,4.68
2022-11-02T21:31:48.840Z,4.38
2022-11-02T21:34:34.388Z,4.45
2022-11-02T21:37:19.765Z,3.55
2022-11-02T21:40:11.779Z,4.50
2022-11-02T21:42:57.125Z,4.68
2022-11-02T21:45:53.534Z,4.63
2022-11-02T21:48:39.338Z,4.68
2022-11-02T21:51:25.105Z,3.40
2022-11-02T21:54:10.721Z,4.75
2022-11-02T21:56:56.354Z,4.30
2022-11-02T21:59:41.682Z,4.35
2022-11-02T22:02:27.095Z,4.05
2022-11-02T22:05:32.698Z,4.30
2022-11-02T22:08:36.703Z,5.15
2022-11-02T22:11:27.059Z,3.97
2022-11-02T22:14:12.778Z,4.22
2022-11-02T22:17:01.514Z,3.97
2022-11-02T22:19:48.130Z,4.65
2022-11-02T22:22:33.587Z,4.55
2022-11-02T22:25:19.026Z,6.13
2022-11-02T22:28:04.854Z,4.70
2022-11-02T22:30:52.961Z,4.10
2022-11-02T22:33:41.551Z,4.25
2022-11-02T22:36:29.218Z,4.18
2022-11-02T22:39:14.659Z,3.97
2022-11-02T22:42:03.088Z,4.38
2022-11-02T22:44:51.312Z,4.45
2022-11-02T22:47:36.861Z,4.20
2022-11-02T22:50:25.114Z,4.38
2022-11-02T22:53:13.313Z,4.15
2022-11-02T22:56:07.836Z,4.53
2022-11-02T22:58:53.486Z,4.37
2022-11-02T23:01:39.639Z,4.72
2022-11-02T23:04:25.230Z,3.80
2022-11-02T23:07:10.950Z,4.28
2022-11-02T23:09:56.271Z,4.88
2022-11-02T23:12:41.872Z,4.05
2022-11-02T23:15:27.309Z,4.55
2022-11-02T23:18:13.175Z,4.50
2022-11-02T23:21:01.548Z,4.25
2022-11-02T23:24:05.487Z,4.07
2022-11-02T23:26:51.278Z,4.07
2022-11-02T23:29:55.336Z,3.83
2022-11-02T23:32:40.679Z,4.20
2022-11-02T23:35:44.909Z,5.18
2022-11-02T23:38:50.984Z,4.55
2022-11-02T23:41:41.604Z,4.40
2022-11-02T23:44:30.983Z,4.57
2022-11-02T23:47:16.771Z,4.38
2022-11-02T23:50:02.153Z,3.65
2022-11-02T23:53:07.236Z,3.53
2022-11-02T23:56:11.191Z,4.20
2022-11-02T23:59:08.587Z,4.03
